Peleliu Airport

C23 · Peleliu, Palau

Historia METAR C23 · Peleliu Airport

Poniżej widzisz METAR-y z ostatnich kilku dni. Wybierz rok, aby przeglądać starsze METAR-y, począwszy od roku 2007.

18 lipca 2024

Czas Kod Pogoda Temp. Widoczność Sufit Wiatr METAR/SPECI
15:50
M
27 °C 11 km 1.300 ft 250° 250° 7 kt METAR PTRO 180650Z 25007KT 7SM -RA FEW008 BKN013CB OVC110 27/25 A2980 RMK CB ALQDS AND OHD
14:50
M
27 °C 11 km 1.300 ft 240° 240° 7 kt METAR PTRO 180550Z 24007KT 7SM -RA FEW008 BKN013CB OVC110 27/25 A2979 RMK CB ALQDS AND OHD
13:50
M
29 °C 8,0 km 1.300 ft 240° 240° 14 - 20 kt METAR PTRO 180450Z 24014G20KT 5SM RA FEW008 BKN013CB OVC110 29/25 A2980 RMK CB ALQDS AND OHD
12:50
M
28 °C 13 km 1.400 ft 240° 240° 8 kt METAR PTRO 180350Z 24008KT 8SM -RA FEW009 BKN014CB BKN110 OVC290 28/25 A2981 RMK CB ALQDS AND OHD
11:50
M
27 °C 11 km 1.400 ft 240° 240° 8 kt METAR PTRO 180250Z 24008KT 7SM -SHRA FEW009 BKN014CB OVC110 27/25 A2983 RMK CB ALQDS AND OHD
10:50
M
27 °C 11 km 1.500 ft 250° 250° 8 kt METAR PTRO 180150Z 25008KT 7SM -SHRA FEW009 BKN015CB OVC120 27/26 A2984 RMK CB ALQDS AND OHD
09:50
M
26 °C 18 km 1.500 ft 320° 320° 5 - 11 kt METAR PTRO 180050Z 32005G11KT 11SM BKN015CB BKN120 OVC300 26/24 A2984 RMK HZ ALQDS CB ALQDS
08:50
M
28 °C 6,4 km 1.400 ft 290° 290° 12 - 25 kt METAR PTRO 172350Z COR 29012G25KT 4SM SHRA FEW008 BKN014CB OVC110 28/26 A2986 RMK CB ALQDS AND OHD
07:50
M
28 °C 16 km 1.500 ft 250° 250° 11 - 17 kt METAR PTRO 172250Z 25011G17KT 10SM FEW008 BKN015CB OVC110 28/26 A2983 RMK HZ ALQDS CB ALQDS
06:50
M
27 °C 16 km 1.500 ft 250° 250° 7 kt METAR PTRO 172150Z 25007KT 10SM BKN015CB BKN110 OVC290 27/25 A2982 RMK HZ ALQDS CB ALQDS
05:50
M
27 °C 21 km 1.500 ft 260° 260° 7 kt METAR PTRO 172050Z 26007KT 13SM BKN015CB BKN110 OVC290 27/25 A2979 RMK CB ALQDS
04:50
M
27 °C 21 km 1.500 ft 270° 270° 5 kt METAR PTRO 171950Z 27005KT 13SM BKN015CB BKN110 OVC290 27/25 A2977 RMK CB ALQDS
03:50
V
27 °C 21 km 11.000 ft 250° 250° 5 kt METAR PTRO 171850Z 25005KT 13SM SCT015CB BKN110 BKN290 27/25 A2978 RMK CB ALQDS
02:50
M
26 °C 19 km 1.400 ft 240° 240° 8 kt METAR PTRO 171750Z 24008KT 12SM BKN014CB OVC110 26/25 A2979
01:50
M
26 °C 19 km 1.400 ft 260° 260° 5 kt METAR PTRO 171650Z 26005KT 12SM BKN014CB OVC110 26/24 A2980 RMK CB ALQDS
00:50
M
26 °C 19 km 1.400 ft 250° 250° 5 kt METAR PTRO 171550Z 25005KT 12SM BKN014CB OVC110 26/24 A2982 RMK CB ALQDS

17 lipca 2024

Czas Kod Pogoda Temp. Widoczność Sufit Wiatr METAR/SPECI
23:50
M
26 °C 14 km 1.300 ft 270° 270° 7 kt METAR PTRO 171450Z 27007KT 9SM -SHRA FEW008 BKN013CB BKN110 OVC290 26/24 A2984 RMK CB ALQDS AND OHD
21:50
M
26 °C 14 km 1.300 ft 270° 270° 9 - 13 kt METAR PTRO 171250Z 27009G13KT 9SM -SHRA FEW008 BKN013CB BKN110 OVC290 26/24 A2986 RMK CB ALQDS AND OHD
20:50
M
26 °C 14 km 1.300 ft 280° 280° 10 kt METAR PTRO 171150Z 28010KT 9SM -SHRA FEW008 BKN013CB BKN110 OVC290 26/24 A2985 RMK CB ALQDS AND OHD
18:50
M
25 °C 11 km 1.300 ft 250° 250° 14 - 18 kt METAR PTRO 170950Z 25014G18KT 7SM -SHRA FEW008 BKN013CB OVC290 25/24 A2981 RMK CB ALQDS AND OHD
17:50
M
25 °C 14 km 1.300 ft 240° 240° 9 kt METAR PTRO 170850Z 24009KT 9SM -SHRA FEW008 BKN013CB OVC290 25/24 A2980 RMK CB ALQDS AND OHD
16:50
I
27 °C 4,8 km 1.300 ft 250° 250° 15 - 23 kt METAR PTRO 170750Z 25015G23KT 3SM +RA BKN013CB OVC290 27/25 A2978 RMK CB ALQDS AND OHD
15:50
V
28 °C 16 km 12.000 ft 260° 260° 6 kt METAR PTRO 170650Z 26006KT 10SM -SHRA FEW009 SCT016CB BKN120 OVC290 28/25 A2976 RMK CB ALQDS AND OHD
15:16
V
28 °C 16 km 12.000 ft 260° 260° 7 kt METAR PTRO 170616Z 26007KT 10SM -SHRA FEW009 SCT017CB BKN120 OVC290 28/25 A2976 RMK HZ ALQDS CB ALQDS
14:50
V
28 °C 19 km 12.000 ft 250° 250° 7 kt METAR PTRO 170550Z 25007KT 12SM FEW009 SCT017CB BKN120 OVC290 28/26 A2977 RMK HZ ALQDS CB ALQDS
13:50
V
28 °C 19 km 12.000 ft 260° 260° 6 kt METAR PTRO 170450Z 26006KT 12SM FEW009 SCT017CB BKN120 OVC290 28/25 A2978 RMK HZ ALQDS CB ALQDS
12:50
V
28 °C 19 km 12.000 ft 270° 270° 7 kt METAR PTRO 170350Z 27007KT 12SM FEW009 SCT017CB BKN120 OVC290 28/26 A2979 RMK HZ ALQDS CB ALQDS
11:50
V
28 °C 19 km 12.000 ft 240° 240° 8 kt METAR PTRO 170250Z 24008KT 12SM FEW009 SCT017CB BKN120 OVC290 28/27 A2981 RMK HZ ALQDS CB ALQDS
11:18
V
27 °C 16 km 12.000 ft 240° 240° 9 - 13 kt METAR PTRO 170218Z 24009G13KT 10SM -SHRA FEW009 SCT016CB OVC120 27/26 A2982 RMK CB ALQDS
10:50
M
26 °C 13 km 1.600 ft 210° 210° 11 - 16 kt METAR PTRO 170150Z 21011G16KT 8SM -SHRA FEW009 BKN016CB OVC120 26/24 A2983 RMK CB ALQDS AND OHD
10:35
M
26 °C 13 km 1.600 ft 190° 190° 8 kt METAR PTRO 170135Z 19008KT 8SM -SHRA FEW009 BKN016CB OVC120 26/24 A2986 RMK CB ALQDS AND OHD
09:50
M
25 °C 10 km 1.500 ft 360° 360° 8 kt METAR PTRO 170050Z 36008KT 6SM -SHRA FEW009 BKN015CB OVC110 25/24 A2986 RMK CB ALQDS AND OHD
08:50
M
26 °C 10 km 1.500 ft 360° 360° 8 kt METAR PTRO 162350Z 36008KT 6SM -SHRA FEW009 BKN015CB OVC110 26/25 A2987 RMK CB ALQDS AND OHD
07:50
M
27 °C 16 km 1.500 ft 320° 320° 3 kt METAR PTRO 162250Z 32003KT 10SM -SHRA FEW009 BKN015CB OVC110 27/25 A2985 RMK CB ALQDS AND OHD
06:50
M
27 °C 21 km 1.500 ft 260° 260° 4 kt METAR PTRO 162150Z 26004KT 13SM FEW009 BKN015CB OVC110 27/25 A2979 RMK CB ALQDS
05:50
M
27 °C 21 km 1.500 ft 230° 230° 7 kt METAR PTRO 162050Z 23007KT 13SM BKN015CB BKN110 OVC290 27/25 A2978 RMK CB ALQDS
04:50
M
27 °C 21 km 1.500 ft 250° 250° 6 kt METAR PTRO 161950Z 25006KT 13SM BKN015CB BKN110 BKN290 27/25 A2978 RMK CB ALQDS
03:50
M
27 °C 21 km 1.500 ft 240° 240° 5 kt METAR PTRO 161850Z 24005KT 13SM BKN015CB BKN110 BKN290 27/25 A2977 RMK CB ALQDS
02:50
M
26 °C 19 km 1.500 ft 240° 240° 6 kt METAR PTRO 161750Z 24006KT 12SM BKN015CB OVC110 26/25 A2978 RMK CB ALQDS
01:50
M
26 °C 19 km 1.500 ft 260° 260° 6 kt METAR PTRO 161650Z 26006KT 12SM BKN015CB OVC110 26/25 A2980 RMK CB ALQDS
00:50
M
26 °C 19 km 1.500 ft 250° 250° 3 kt METAR PTRO 161550Z 25003KT 12SM BKN015CB OVC110 26/25 A2982 RMK CB ALQDS

16 lipca 2024

Czas Kod Pogoda Temp. Widoczność Sufit Wiatr METAR/SPECI
23:50
V
26 °C 19 km 11.000 ft 220° 220° 4 kt METAR PTRO 161450Z 22004KT 12SM SCT015CB BKN110 OVC290 26/25 A2984 RMK CB ALQDS
22:50
V
26 °C 19 km 11.000 ft 220° 220° 4 kt METAR PTRO 161350Z 22004KT 12SM SCT015CB BKN110 OVC290 26/24 A2985 RMK CB ALQDS
21:50
M
26 °C 11 km 1.500 ft 250° 250° 6 kt METAR PTRO 161250Z 25006KT 7SM -SHRA FEW009 BKN015CB BKN110 OVC290 26/24 A2988 RMK CB ALQDS AND OHD
20:50
M
26 °C 11 km 1.500 ft 240° 240° 8 - 13 kt METAR PTRO 161150Z 24008G13KT 7SM -SHRA FEW009 BKN015CB BKN110 OVC290 26/24 A2985 RMK CB ALQDS AND OHD
19:50
V
26 °C 23 km 11.000 ft 230° 230° 4 kt METAR PTRO 161050Z 23004KT 14SM FEW009 SCT015CB BKN110 OVC290 26/25 A2983 RMK CB ALQDS
18:50
V
26 °C 19 km 11.000 ft 270° 270° 6 kt METAR PTRO 160950Z 27006KT 12SM FEW009 SCT019CB BKN110 OVC290 26/25 A2982 RMK HZ ALQDS CB ALQDS
17:50
V
26 °C 19 km 11.000 ft 250° 250° 5 kt METAR PTRO 160850Z 25005KT 12SM FEW009 SCT015CB BKN110 OVC290 26/24 A2980 RMK HZ ALQDS CB ALQDS
16:50
M
26 °C 10 km 1.500 ft 240° 240° 5 kt METAR PTRO 160750Z 24005KT 6SM -RA BKN015CB BKN110 OVC290 26/24 A2979 RMK CB OHD AND ALQDS
15:50
M
26 °C 13 km 1.500 ft 260° 260° 5 kt METAR PTRO 160650Z 26005KT 8SM -SHRA BKN015CB BKN110 OVC290 26/24 A2978 RMK CB OHD AND ALQDS
14:50
M
26 °C 10 km 1.500 ft 280° 280° 7 kt METAR PTRO 160550Z 28007KT 6SM -SHRA BKN015CB BKN110 OVC290 26/24 A2978 RMK CB OHD AND ALQDS
Zgłoś zmianę